Salisbury, Missouri
Current Conditions -  °F | °C
As of 7:35 PM on Monday 24 Nov 2014 (Local Time) from KMHL Reporting Station
Scattered Clouds Scattered Clouds  
Wind Chill: 29°   Ceiling: Unl
Heat Index: 36°   Visibility: 10mi
Dew Point: 28°   Wind: 8mph
Humidity: 75%   Direction: 280°W
Pressure: 29.97"   Gusts: NA
Location:  39.42°N, 92.8°W
Report Text: KMHL 250135Z AUTO 28007KT 10SM SCT046 02/M02 A2997 RMK AO2
Loading
Personal Weather Stations






























Interactive Weather Map New forecast layout! Learn more

10-Day Weather Forecast

Advertisements
Track Severe Weather on mobile